sensor_id;sensor_type;location;lat;lon;timestamp;temperature;humidity
22071;DHT22;11200;51.488;6.668;2022-11-15T00:00:32;9.30;99.90
22071;DHT22;11200;51.488;6.668;2022-11-15T00:02:58;9.30;99.90
22071;DHT22;11200;51.488;6.668;2022-11-15T00:05:23;9.40;99.90
22071;DHT22;11200;51.488;6.668;2022-11-15T00:07:49;9.40;99.90
22071;DHT22;11200;51.488;6.668;2022-11-15T00:10:15;9.70;99.90
22071;DHT22;11200;51.488;6.668;2022-11-15T00:12:40;9.40;99.90
22071;DHT22;11200;51.488;6.668;2022-11-15T00:15:07;9.40;99.90
22071;DHT22;11200;51.488;6.668;2022-11-15T00:17:32;9.40;99.90
22071;DHT22;11200;51.488;6.668;2022-11-15T00:19:58;9.70;99.90
22071;DHT22;11200;51.488;6.668;2022-11-15T00:22:23;9.40;99.90
22071;DHT22;11200;51.488;6.668;2022-11-15T00:24:49;9.50;99.90
22071;DHT22;11200;51.488;6.668;2022-11-15T00:27:14;9.60;99.90
22071;DHT22;11200;51.488;6.668;2022-11-15T00:29:40;9.80;99.90
22071;DHT22;11200;51.488;6.668;2022-11-15T00:32:09;9.30;99.90
22071;DHT22;11200;51.488;6.668;2022-11-15T00:34:35;9.60;99.90
22071;DHT22;11200;51.488;6.668;2022-11-15T00:37:01;9.70;99.90
22071;DHT22;11200;51.488;6.668;2022-11-15T00:39:26;9.60;99.90
22071;DHT22;11200;51.488;6.668;2022-11-15T00:41:52;9.60;99.90
22071;DHT22;11200;51.488;6.668;2022-11-15T00:44:17;9.80;99.90
22071;DHT22;11200;51.488;6.668;2022-11-15T00:46:43;9.70;99.90
22071;DHT22;11200;51.488;6.668;2022-11-15T00:49:08;9.70;99.90
22071;DHT22;11200;51.488;6.668;2022-11-15T00:51:34;9.70;99.90
22071;DHT22;11200;51.488;6.668;2022-11-15T00:53:59;9.70;99.90
22071;DHT22;11200;51.488;6.668;2022-11-15T00:56:25;9.80;99.90
22071;DHT22;11200;51.488;6.668;2022-11-15T00:58:51;9.70;99.90
22071;DHT22;11200;51.488;6.668;2022-11-15T01:01:17;9.70;99.90
22071;DHT22;11200;51.488;6.668;2022-11-15T01:03:43;9.50;99.90
22071;DHT22;11200;51.488;6.668;2022-11-15T01:06:11;9.80;99.90
22071;DHT22;11200;51.488;6.668;2022-11-15T01:08:40;9.40;99.90
22071;DHT22;11200;51.488;6.668;2022-11-15T01:11:08;10.00;99.90
22071;DHT22;11200;51.488;6.668;2022-11-15T01:13:35;9.80;99.90
22071;DHT22;11200;51.488;6.668;2022-11-15T01:16:10;9.70;99.90
22071;DHT22;11200;51.488;6.668;2022-11-15T01:18:37;9.90;99.90
22071;DHT22;11200;51.488;6.668;2022-11-15T01:21:08;9.90;99.90
22071;DHT22;11200;51.488;6.668;2022-11-15T01:23:34;9.90;99.90
22071;DHT22;11200;51.488;6.668;2022-11-15T01:26:03;10.00;99.90
22071;DHT22;11200;51.488;6.668;2022-11-15T01:28:31;9.90;99.90
22071;DHT22;11200;51.488;6.668;2022-11-15T01:31:01;9.90;99.90
22071;DHT22;11200;51.488;6.668;2022-11-15T01:33:27;9.70;99.90
22071;DHT22;11200;51.488;6.668;2022-11-15T01:35:54;10.00;99.90
22071;DHT22;11200;51.488;6.668;2022-11-15T01:38:19;10.10;99.90
22071;DHT22;11200;51.488;6.668;2022-11-15T01:40:45;9.70;99.90
22071;DHT22;11200;51.488;6.668;2022-11-15T01:43:28;10.10;99.90
22071;DHT22;11200;51.488;6.668;2022-11-15T01:46:21;10.30;99.90
22071;DHT22;11200;51.488;6.668;2022-11-15T01:48:51;10.10;99.90
22071;DHT22;11200;51.488;6.668;2022-11-15T01:51:18;10.10;99.90
22071;DHT22;11200;51.488;6.668;2022-11-15T01:53:48;10.40;99.90
22071;DHT22;11200;51.488;6.668;2022-11-15T01:56:19;10.30;99.90
22071;DHT22;11200;51.488;6.668;2022-11-15T01:58:46;10.50;99.90
22071;DHT22;11200;51.488;6.668;2022-11-15T02:01:13;10.20;99.90
22071;DHT22;11200;51.488;6.668;2022-11-15T02:03:52;10.30;99.90
22071;DHT22;11200;51.488;6.668;2022-11-15T02:06:20;10.30;99.90
22071;DHT22;11200;51.488;6.668;2022-11-15T02:08:47;10.30;99.90
22071;DHT22;11200;51.488;6.668;2022-11-15T02:11:13;10.80;99.90
22071;DHT22;11200;51.488;6.668;2022-11-15T02:13:39;10.30;99.90
22071;DHT22;11200;51.488;6.668;2022-11-15T02:19:29;10.40;99.90
22071;DHT22;11200;51.488;6.668;2022-11-15T02:25:57;10.40;99.90
22071;DHT22;11200;51.488;6.668;2022-11-15T02:28:22;10.50;99.90
22071;DHT22;11200;51.488;6.668;2022-11-15T02:31:12;10.50;99.90
22071;DHT22;11200;51.488;6.668;2022-11-15T02:39:03;10.60;99.90
22071;DHT22;11200;51.488;6.668;2022-11-15T02:41:49;10.60;99.90
22071;DHT22;11200;51.488;6.668;2022-11-15T02:44:37;10.60;99.90
22071;DHT22;11200;51.488;6.668;2022-11-15T02:47:07;10.60;99.90
22071;DHT22;11200;51.488;6.668;2022-11-15T02:49:51;10.70;99.90
22071;DHT22;11200;51.488;6.668;2022-11-15T02:52:22;10.70;99.90
22071;DHT22;11200;51.488;6.668;2022-11-15T02:55:01;10.70;99.90
22071;DHT22;11200;51.488;6.668;2022-11-15T02:57:39;10.70;99.90
22071;DHT22;11200;51.488;6.668;2022-11-15T03:03:08;10.80;99.90
22071;DHT22;11200;51.488;6.668;2022-11-15T03:05:47;10.80;99.90
22071;DHT22;11200;51.488;6.668;2022-11-15T03:11:09;10.60;99.90
22071;DHT22;11200;51.488;6.668;2022-11-15T03:18:43;10.90;99.90
22071;DHT22;11200;51.488;6.668;2022-11-15T03:21:11;10.80;99.90
22071;DHT22;11200;51.488;6.668;2022-11-15T03:23:39;11.00;99.90
22071;DHT22;11200;51.488;6.668;2022-11-15T03:26:07;10.90;99.90
22071;DHT22;11200;51.488;6.668;2022-11-15T03:28:47;11.10;99.90
22071;DHT22;11200;51.488;6.668;2022-11-15T03:31:16;11.00;99.90
22071;DHT22;11200;51.488;6.668;2022-11-15T03:34:05;11.20;99.90
22071;DHT22;11200;51.488;6.668;2022-11-15T03:36:33;11.00;99.90
22071;DHT22;11200;51.488;6.668;2022-11-15T03:39:03;11.00;99.90
22071;DHT22;11200;51.488;6.668;2022-11-15T03:41:38;11.00;99.90
22071;DHT22;11200;51.488;6.668;2022-11-15T03:46:46;11.10;99.90
22071;DHT22;11200;51.488;6.668;2022-11-15T03:49:22;11.10;99.90
22071;DHT22;11200;51.488;6.668;2022-11-15T03:51:50;11.00;99.90
22071;DHT22;11200;51.488;6.668;2022-11-15T03:54:15;11.10;99.90
22071;DHT22;11200;51.488;6.668;2022-11-15T03:56:41;11.20;99.90
22071;DHT22;11200;51.488;6.668;2022-11-15T03:59:06;10.90;99.90
22071;DHT22;11200;51.488;6.668;2022-11-15T04:01:32;11.10;99.90
22071;DHT22;11200;51.488;6.668;2022-11-15T04:03:57;11.30;99.90
22071;DHT22;11200;51.488;6.668;2022-11-15T04:06:23;11.20;99.90
22071;DHT22;11200;51.488;6.668;2022-11-15T04:08:49;11.20;99.90
22071;DHT22;11200;51.488;6.668;2022-11-15T04:11:14;11.30;99.90
22071;DHT22;11200;51.488;6.668;2022-11-15T04:13:40;11.30;99.90
22071;DHT22;11200;51.488;6.668;2022-11-15T04:16:05;11.40;99.90
22071;DHT22;11200;51.488;6.668;2022-11-15T04:18:31;11.30;99.90
22071;DHT22;11200;51.488;6.668;2022-11-15T04:20:57;11.20;99.90
22071;DHT22;11200;51.488;6.668;2022-11-15T04:23:41;11.10;99.90
22071;DHT22;11200;51.488;6.668;2022-11-15T04:26:25;11.50;99.90
22071;DHT22;11200;51.488;6.668;2022-11-15T04:28:50;11.40;99.90
22071;DHT22;11200;51.488;6.668;2022-11-15T04:31:34;11.50;99.90
22071;DHT22;11200;51.488;6.668;2022-11-15T04:34:01;11.40;99.90
22071;DHT22;11200;51.488;6.668;2022-11-15T04:36:26;11.40;99.90
22071;DHT22;11200;51.488;6.668;2022-11-15T04:39:10;11.80;99.90
22071;DHT22;11200;51.488;6.668;2022-11-15T04:41:36;11.50;99.90
22071;DHT22;11200;51.488;6.668;2022-11-15T04:44:02;11.30;99.90
22071;DHT22;11200;51.488;6.668;2022-11-15T04:46:27;11.20;99.90
22071;DHT22;11200;51.488;6.668;2022-11-15T04:48:54;11.40;99.90
22071;DHT22;11200;51.488;6.668;2022-11-15T04:51:20;11.50;99.90
22071;DHT22;11200;51.488;6.668;2022-11-15T04:53:46;11.80;99.90
22071;DHT22;11200;51.488;6.668;2022-11-15T04:56:11;12.00;99.90
22071;DHT22;11200;51.488;6.668;2022-11-15T04:58:37;11.20;99.90
22071;DHT22;11200;51.488;6.668;2022-11-15T05:01:10;12.00;99.90
22071;DHT22;11200;51.488;6.668;2022-11-15T05:03:37;11.50;99.90
22071;DHT22;11200;51.488;6.668;2022-11-15T05:06:21;11.50;99.90
22071;DHT22;11200;51.488;6.668;2022-11-15T05:08:47;11.50;99.90
22071;DHT22;11200;51.488;6.668;2022-11-15T05:11:13;12.20;99.90
22071;DHT22;11200;51.488;6.668;2022-11-15T05:13:38;11.50;99.90
22071;DHT22;11200;51.488;6.668;2022-11-15T05:16:04;12.50;99.90
22071;DHT22;11200;51.488;6.668;2022-11-15T05:18:30;11.50;99.90
22071;DHT22;11200;51.488;6.668;2022-11-15T05:20:55;11.60;99.90
22071;DHT22;11200;51.488;6.668;2022-11-15T05:23:21;11.50;99.90
22071;DHT22;11200;51.488;6.668;2022-11-15T05:25:46;11.50;99.90
22071;DHT22;11200;51.488;6.668;2022-11-15T05:28:15;11.60;99.90
22071;DHT22;11200;51.488;6.668;2022-11-15T05:30:41;11.10;99.90
22071;DHT22;11200;51.488;6.668;2022-11-15T05:33:06;11.70;99.90
22071;DHT22;11200;51.488;6.668;2022-11-15T05:35:45;11.60;99.90
22071;DHT22;11200;51.488;6.668;2022-11-15T05:38:11;12.20;99.90
22071;DHT22;11200;51.488;6.668;2022-11-15T05:40:37;11.70;99.90
22071;DHT22;11200;51.488;6.668;2022-11-15T05:43:03;11.50;99.90
22071;DHT22;11200;51.488;6.668;2022-11-15T05:45:31;11.50;99.90
22071;DHT22;11200;51.488;6.668;2022-11-15T05:47:58;11.60;99.90
22071;DHT22;11200;51.488;6.668;2022-11-15T05:50:25;11.60;99.90
22071;DHT22;11200;51.488;6.668;2022-11-15T05:52:51;12.10;99.90
22071;DHT22;11200;51.488;6.668;2022-11-15T05:55:17;11.50;99.90
22071;DHT22;11200;51.488;6.668;2022-11-15T05:57:43;11.60;99.90
22071;DHT22;11200;51.488;6.668;2022-11-15T06:00:10;11.50;99.90
22071;DHT22;11200;51.488;6.668;2022-11-15T06:02:36;11.50;99.90
22071;DHT22;11200;51.488;6.668;2022-11-15T06:05:01;11.60;99.90
22071;DHT22;11200;51.488;6.668;2022-11-15T06:07:29;11.50;99.90
22071;DHT22;11200;51.488;6.668;2022-11-15T06:09:54;11.60;99.90
22071;DHT22;11200;51.488;6.668;2022-11-15T06:12:20;11.60;99.90
22071;DHT22;11200;51.488;6.668;2022-11-15T06:14:46;11.70;99.90
22071;DHT22;11200;51.488;6.668;2022-11-15T06:17:11;11.60;99.90
22071;DHT22;11200;51.488;6.668;2022-11-15T06:19:37;11.40;99.90
22071;DHT22;11200;51.488;6.668;2022-11-15T06:22:02;11.70;99.90
22071;DHT22;11200;51.488;6.668;2022-11-15T06:24:28;11.30;99.90
22071;DHT22;11200;51.488;6.668;2022-11-15T06:26:53;11.90;99.90
22071;DHT22;11200;51.488;6.668;2022-11-15T06:29:19;11.70;99.90
22071;DHT22;11200;51.488;6.668;2022-11-15T06:31:45;11.20;99.90
22071;DHT22;11200;51.488;6.668;2022-11-15T06:34:10;11.70;99.90
22071;DHT22;11200;51.488;6.668;2022-11-15T06:36:36;11.70;99.90
22071;DHT22;11200;51.488;6.668;2022-11-15T06:39:03;11.60;99.90
22071;DHT22;11200;51.488;6.668;2022-11-15T06:41:29;11.70;99.90
22071;DHT22;11200;51.488;6.668;2022-11-15T06:43:55;11.50;99.90
22071;DHT22;11200;51.488;6.668;2022-11-15T06:46:21;10.60;99.90
22071;DHT22;11200;51.488;6.668;2022-11-15T06:48:47;11.70;99.90
22071;DHT22;11200;51.488;6.668;2022-11-15T06:51:14;11.80;99.90
22071;DHT22;11200;51.488;6.668;2022-11-15T06:53:40;11.70;99.90
22071;DHT22;11200;51.488;6.668;2022-11-15T06:56:06;11.70;99.90
22071;DHT22;11200;51.488;6.668;2022-11-15T06:58:32;11.70;99.90
22071;DHT22;11200;51.488;6.668;2022-11-15T07:01:03;11.80;99.90
22071;DHT22;11200;51.488;6.668;2022-11-15T07:03:29;11.70;99.90
22071;DHT22;11200;51.488;6.668;2022-11-15T07:05:56;12.00;99.90
22071;DHT22;11200;51.488;6.668;2022-11-15T07:08:23;12.40;99.90
22071;DHT22;11200;51.488;6.668;2022-11-15T07:10:49;11.70;99.90
22071;DHT22;11200;51.488;6.668;2022-11-15T07:13:14;12.10;99.90
22071;DHT22;11200;51.488;6.668;2022-11-15T07:15:43;12.30;99.90
22071;DHT22;11200;51.488;6.668;2022-11-15T07:18:08;11.70;99.90
22071;DHT22;11200;51.488;6.668;2022-11-15T07:20:37;11.80;99.90
22071;DHT22;11200;51.488;6.668;2022-11-15T07:23:05;11.80;99.90
22071;DHT22;11200;51.488;6.668;2022-11-15T07:25:39;11.70;99.90
22071;DHT22;11200;51.488;6.668;2022-11-15T07:28:05;11.80;99.90
22071;DHT22;11200;51.488;6.668;2022-11-15T07:30:30;12.00;99.90
22071;DHT22;11200;51.488;6.668;2022-11-15T07:32:57;12.20;99.90
22071;DHT22;11200;51.488;6.668;2022-11-15T07:35:27;12.40;99.90
22071;DHT22;11200;51.488;6.668;2022-11-15T07:38:00;11.80;99.90
22071;DHT22;11200;51.488;6.668;2022-11-15T07:40:28;11.80;99.90
22071;DHT22;11200;51.488;6.668;2022-11-15T07:43:05;12.00;99.90
22071;DHT22;11200;51.488;6.668;2022-11-15T07:45:31;12.40;99.90
22071;DHT22;11200;51.488;6.668;2022-11-15T07:47:59;11.90;99.90
22071;DHT22;11200;51.488;6.668;2022-11-15T07:50:25;12.70;99.90
22071;DHT22;11200;51.488;6.668;2022-11-15T07:52:55;11.40;99.90
22071;DHT22;11200;51.488;6.668;2022-11-15T07:55:22;11.90;99.90
22071;DHT22;11200;51.488;6.668;2022-11-15T07:57:48;11.90;99.90
22071;DHT22;11200;51.488;6.668;2022-11-15T08:00:14;12.00;99.90
22071;DHT22;11200;51.488;6.668;2022-11-15T08:02:40;12.00;99.90
22071;DHT22;11200;51.488;6.668;2022-11-15T08:05:06;11.90;99.90
22071;DHT22;11200;51.488;6.668;2022-11-15T08:07:34;12.00;99.90
22071;DHT22;11200;51.488;6.668;2022-11-15T08:09:59;11.80;99.90
22071;DHT22;11200;51.488;6.668;2022-11-15T08:12:27;12.20;99.90
22071;DHT22;11200;51.488;6.668;2022-11-15T08:14:54;12.20;99.90
22071;DHT22;11200;51.488;6.668;2022-11-15T08:17:21;13.10;99.90
22071;DHT22;11200;51.488;6.668;2022-11-15T08:19:47;12.00;99.90
22071;DHT22;11200;51.488;6.668;2022-11-15T08:22:13;12.00;99.90
22071;DHT22;11200;51.488;6.668;2022-11-15T08:24:39;12.00;99.90
22071;DHT22;11200;51.488;6.668;2022-11-15T08:27:05;11.70;99.90
22071;DHT22;11200;51.488;6.668;2022-11-15T08:29:30;11.90;99.90
22071;DHT22;11200;51.488;6.668;2022-11-15T08:32:06;11.90;99.90
22071;DHT22;11200;51.488;6.668;2022-11-15T08:34:33;11.90;99.90
22071;DHT22;11200;51.488;6.668;2022-11-15T08:36:59;11.90;99.90
22071;DHT22;11200;51.488;6.668;2022-11-15T08:39:25;11.90;99.90
22071;DHT22;11200;51.488;6.668;2022-11-15T08:41:50;12.30;99.90
22071;DHT22;11200;51.488;6.668;2022-11-15T08:44:16;11.70;99.90
22071;DHT22;11200;51.488;6.668;2022-11-15T08:46:41;12.40;99.90
22071;DHT22;11200;51.488;6.668;2022-11-15T08:49:07;11.80;99.90
22071;DHT22;11200;51.488;6.668;2022-11-15T08:51:33;12.70;99.90
22071;DHT22;11200;51.488;6.668;2022-11-15T08:53:58;11.90;99.90
22071;DHT22;11200;51.488;6.668;2022-11-15T08:56:24;12.10;99.90
22071;DHT22;11200;51.488;6.668;2022-11-15T08:58:49;11.80;99.90
22071;DHT22;11200;51.488;6.668;2022-11-15T09:01:18;11.90;99.90
22071;DHT22;11200;51.488;6.668;2022-11-15T09:03:43;11.90;99.90
22071;DHT22;11200;51.488;6.668;2022-11-15T09:06:09;11.90;99.90
22071;DHT22;11200;51.488;6.668;2022-11-15T09:08:35;11.90;99.90
22071;DHT22;11200;51.488;6.668;2022-11-15T09:11:08;12.10;99.90
22071;DHT22;11200;51.488;6.668;2022-11-15T09:13:34;12.40;99.90
22071;DHT22;11200;51.488;6.668;2022-11-15T09:16:02;12.80;99.90
22071;DHT22;11200;51.488;6.668;2022-11-15T09:18:28;12.10;99.90
22071;DHT22;11200;51.488;6.668;2022-11-15T09:20:57;12.20;99.90
22071;DHT22;11200;51.488;6.668;2022-11-15T09:23:24;12.80;99.90
22071;DHT22;11200;51.488;6.668;2022-11-15T09:25:50;12.30;99.90
22071;DHT22;11200;51.488;6.668;2022-11-15T09:28:15;12.50;99.90
22071;DHT22;11200;51.488;6.668;2022-11-15T09:30:41;12.70;99.90
22071;DHT22;11200;51.488;6.668;2022-11-15T09:33:11;12.50;99.90
22071;DHT22;11200;51.488;6.668;2022-11-15T09:35:37;12.60;99.90
22071;DHT22;11200;51.488;6.668;2022-11-15T09:38:03;12.30;99.90
22071;DHT22;11200;51.488;6.668;2022-11-15T09:40:31;12.30;99.90
22071;DHT22;11200;51.488;6.668;2022-11-15T09:48:47;12.40;99.90
22071;DHT22;11200;51.488;6.668;2022-11-15T09:51:32;12.40;99.90
22071;DHT22;11200;51.488;6.668;2022-11-15T09:54:10;12.40;99.90
22071;DHT22;11200;51.488;6.668;2022-11-15T09:56:41;12.50;99.90
22071;DHT22;11200;51.488;6.668;2022-11-15T10:04:48;12.70;99.90
22071;DHT22;11200;51.488;6.668;2022-11-15T10:10:15;13.00;99.90
22071;DHT22;11200;51.488;6.668;2022-11-15T10:12:48;13.00;99.90
22071;DHT22;11200;51.488;6.668;2022-11-15T10:15:16;13.20;99.90
22071;DHT22;11200;51.488;6.668;2022-11-15T10:18:04;13.30;99.90
22071;DHT22;11200;51.488;6.668;2022-11-15T10:20:39;13.30;99.90
22071;DHT22;11200;51.488;6.668;2022-11-15T10:23:11;14.30;99.90
22071;DHT22;11200;51.488;6.668;2022-11-15T10:25:38;13.50;99.90
22071;DHT22;11200;51.488;6.668;2022-11-15T10:28:16;13.50;99.90
22071;DHT22;11200;51.488;6.668;2022-11-15T10:30:48;13.60;99.90
22071;DHT22;11200;51.488;6.668;2022-11-15T10:41:15;13.60;99.90
22071;DHT22;11200;51.488;6.668;2022-11-15T10:43:41;13.60;99.90
22071;DHT22;11200;51.488;6.668;2022-11-15T10:46:23;13.60;99.90
22071;DHT22;11200;51.488;6.668;2022-11-15T10:48:49;14.10;99.90
22071;DHT22;11200;51.488;6.668;2022-11-15T10:51:27;14.10;99.90
22071;DHT22;11200;51.488;6.668;2022-11-15T10:53:58;13.80;99.90
22071;DHT22;11200;51.488;6.668;2022-11-15T10:56:26;13.90;99.90
22071;DHT22;11200;51.488;6.668;2022-11-15T10:58:56;13.80;99.90
22071;DHT22;11200;51.488;6.668;2022-11-15T11:01:27;13.90;99.90
22071;DHT22;11200;51.488;6.668;2022-11-15T11:04:02;14.00;99.90
22071;DHT22;11200;51.488;6.668;2022-11-15T11:06:29;14.00;99.90
22071;DHT22;11200;51.488;6.668;2022-11-15T11:09:01;14.40;99.90
22071;DHT22;11200;51.488;6.668;2022-11-15T11:11:46;14.30;99.90
22071;DHT22;11200;51.488;6.668;2022-11-15T11:14:13;14.40;99.90
22071;DHT22;11200;51.488;6.668;2022-11-15T11:16:52;14.50;99.90
22071;DHT22;11200;51.488;6.668;2022-11-15T11:22:20;14.60;99.90
22071;DHT22;11200;51.488;6.668;2022-11-15T11:25:04;14.70;99.90
22071;DHT22;11200;51.488;6.668;2022-11-15T11:27:41;14.80;99.90
22071;DHT22;11200;51.488;6.668;2022-11-15T11:35:45;15.00;99.90
22071;DHT22;11200;51.488;6.668;2022-11-15T11:49:16;15.10;99.90
22071;DHT22;11200;51.488;6.668;2022-11-15T11:57:07;15.10;99.90
22071;DHT22;11200;51.488;6.668;2022-11-15T11:59:48;15.30;99.90
22071;DHT22;11200;51.488;6.668;2022-11-15T12:02:25;15.20;99.90
22071;DHT22;11200;51.488;6.668;2022-11-15T12:04:57;15.20;99.90
22071;DHT22;11200;51.488;6.668;2022-11-15T12:07:32;15.60;99.90
22071;DHT22;11200;51.488;6.668;2022-11-15T12:10:24;15.20;99.90
22071;DHT22;11200;51.488;6.668;2022-11-15T12:13:13;15.20;99.90
22071;DHT22;11200;51.488;6.668;2022-11-15T12:15:45;15.20;99.90
22071;DHT22;11200;51.488;6.668;2022-11-15T12:18:15;15.20;99.90
22071;DHT22;11200;51.488;6.668;2022-11-15T12:20:53;16.00;99.90
22071;DHT22;11200;51.488;6.668;2022-11-15T12:23:28;15.20;99.90
22071;DHT22;11200;51.488;6.668;2022-11-15T12:26:06;15.20;99.90
22071;DHT22;11200;51.488;6.668;2022-11-15T12:33:58;15.10;99.90
22071;DHT22;11200;51.488;6.668;2022-11-15T12:39:02;15.30;99.90
22071;DHT22;11200;51.488;6.668;2022-11-15T12:41:33;15.00;99.90
22071;DHT22;11200;51.488;6.668;2022-11-15T12:44:00;15.00;99.90
22071;DHT22;11200;51.488;6.668;2022-11-15T12:48:59;14.90;99.90
22071;DHT22;11200;51.488;6.668;2022-11-15T13:04:47;14.60;99.90
22071;DHT22;11200;51.488;6.668;2022-11-15T13:17:52;14.40;99.90
22071;DHT22;11200;51.488;6.668;2022-11-15T13:20:29;14.40;99.90
22071;DHT22;11200;51.488;6.668;2022-11-15T13:25:31;14.30;99.90
22071;DHT22;11200;51.488;6.668;2022-11-15T13:33:17;14.10;99.90
22071;DHT22;11200;51.488;6.668;2022-11-15T13:35:58;14.20;99.90
22071;DHT22;11200;51.488;6.668;2022-11-15T13:38:26;14.10;99.90
22071;DHT22;11200;51.488;6.668;2022-11-15T13:40:55;14.10;99.90
22071;DHT22;11200;51.488;6.668;2022-11-15T13:43:35;14.10;99.90
22071;DHT22;11200;51.488;6.668;2022-11-15T13:46:23;14.10;99.90
22071;DHT22;11200;51.488;6.668;2022-11-15T13:51:25;14.60;99.90
22071;DHT22;11200;51.488;6.668;2022-11-15T13:56:27;14.00;99.90
22071;DHT22;11200;51.488;6.668;2022-11-15T13:58:54;14.70;99.90
22071;DHT22;11200;51.488;6.668;2022-11-15T14:01:24;13.90;99.90
22071;DHT22;11200;51.488;6.668;2022-11-15T14:03:56;13.90;99.90
22071;DHT22;11200;51.488;6.668;2022-11-15T14:06:24;13.70;99.90
22071;DHT22;11200;51.488;6.668;2022-11-15T14:11:34;13.90;99.90
22071;DHT22;11200;51.488;6.668;2022-11-15T14:16:45;13.90;99.90
22071;DHT22;11200;51.488;6.668;2022-11-15T14:24:44;13.80;99.90
22071;DHT22;11200;51.488;6.668;2022-11-15T14:29:48;13.80;99.90
22071;DHT22;11200;51.488;6.668;2022-11-15T14:32:20;13.80;99.90
22071;DHT22;11200;51.488;6.668;2022-11-15T14:34:48;13.80;99.90
22071;DHT22;11200;51.488;6.668;2022-11-15T14:37:33;14.50;99.90
22071;DHT22;11200;51.488;6.668;2022-11-15T14:40:05;13.90;99.90
22071;DHT22;11200;51.488;6.668;2022-11-15T14:42:31;13.80;99.90
22071;DHT22;11200;51.488;6.668;2022-11-15T14:44:57;13.20;99.90
22071;DHT22;11200;51.488;6.668;2022-11-15T14:47:28;13.80;99.90
22071;DHT22;11200;51.488;6.668;2022-11-15T14:49:56;13.80;99.90
22071;DHT22;11200;51.488;6.668;2022-11-15T14:52:27;14.80;99.90
22071;DHT22;11200;51.488;6.668;2022-11-15T14:54:54;13.70;99.90
22071;DHT22;11200;51.488;6.668;2022-11-15T14:57:20;13.70;99.90
22071;DHT22;11200;51.488;6.668;2022-11-15T14:59:46;14.50;99.90
22071;DHT22;11200;51.488;6.668;2022-11-15T15:02:28;14.00;99.90
22071;DHT22;11200;51.488;6.668;2022-11-15T15:04:54;13.70;99.90
22071;DHT22;11200;51.488;6.668;2022-11-15T15:07:22;14.00;99.90
22071;DHT22;11200;51.488;6.668;2022-11-15T15:09:48;13.80;99.90
22071;DHT22;11200;51.488;6.668;2022-11-15T15:12:19;13.60;99.90
22071;DHT22;11200;51.488;6.668;2022-11-15T15:14:45;14.10;99.90
22071;DHT22;11200;51.488;6.668;2022-11-15T15:17:11;14.20;99.90
22071;DHT22;11200;51.488;6.668;2022-11-15T15:19:37;13.60;99.90
22071;DHT22;11200;51.488;6.668;2022-11-15T15:22:03;13.60;99.90
22071;DHT22;11200;51.488;6.668;2022-11-15T15:24:28;13.60;99.90
22071;DHT22;11200;51.488;6.668;2022-11-15T15:26:57;13.60;99.90
22071;DHT22;11200;51.488;6.668;2022-11-15T15:29:23;13.60;99.90
22071;DHT22;11200;51.488;6.668;2022-11-15T15:31:51;13.60;99.90
22071;DHT22;11200;51.488;6.668;2022-11-15T15:34:20;13.50;99.90
22071;DHT22;11200;51.488;6.668;2022-11-15T15:36:45;13.50;99.90
22071;DHT22;11200;51.488;6.668;2022-11-15T15:39:34;13.90;99.90
22071;DHT22;11200;51.488;6.668;2022-11-15T15:42:00;13.10;99.90
22071;DHT22;11200;51.488;6.668;2022-11-15T15:44:28;13.50;99.90
22071;DHT22;11200;51.488;6.668;2022-11-15T15:46:54;13.50;99.90
22071;DHT22;11200;51.488;6.668;2022-11-15T15:49:20;13.70;99.90
22071;DHT22;11200;51.488;6.668;2022-11-15T15:51:48;13.80;99.90
22071;DHT22;11200;51.488;6.668;2022-11-15T15:54:14;13.50;99.90
22071;DHT22;11200;51.488;6.668;2022-11-15T15:56:39;14.00;99.90
22071;DHT22;11200;51.488;6.668;2022-11-15T15:59:05;13.40;99.90
22071;DHT22;11200;51.488;6.668;2022-11-15T16:01:34;13.30;99.90
22071;DHT22;11200;51.488;6.668;2022-11-15T16:03:59;13.40;99.90
22071;DHT22;11200;51.488;6.668;2022-11-15T16:06:39;13.40;99.90
22071;DHT22;11200;51.488;6.668;2022-11-15T16:09:13;13.30;99.90
22071;DHT22;11200;51.488;6.668;2022-11-15T16:11:39;13.30;99.90
22071;DHT22;11200;51.488;6.668;2022-11-15T16:14:07;13.30;99.90
22071;DHT22;11200;51.488;6.668;2022-11-15T16:16:32;13.30;99.90
22071;DHT22;11200;51.488;6.668;2022-11-15T16:18:59;13.30;99.90
22071;DHT22;11200;51.488;6.668;2022-11-15T16:21:26;13.30;99.90
22071;DHT22;11200;51.488;6.668;2022-11-15T16:23:52;13.30;99.90
22071;DHT22;11200;51.488;6.668;2022-11-15T16:26:26;13.60;99.90
22071;DHT22;11200;51.488;6.668;2022-11-15T16:28:53;13.30;99.90
22071;DHT22;11200;51.488;6.668;2022-11-15T16:31:19;13.30;99.90
22071;DHT22;11200;51.488;6.668;2022-11-15T16:33:47;13.30;99.90
22071;DHT22;11200;51.488;6.668;2022-11-15T16:36:22;13.30;99.90
22071;DHT22;11200;51.488;6.668;2022-11-15T16:38:48;13.60;99.90
22071;DHT22;11200;51.488;6.668;2022-11-15T16:41:15;13.30;99.90
22071;DHT22;11200;51.488;6.668;2022-11-15T16:43:45;13.60;99.90
22071;DHT22;11200;51.488;6.668;2022-11-15T16:46:18;13.10;99.90
22071;DHT22;11200;51.488;6.668;2022-11-15T16:48:44;13.30;99.90
22071;DHT22;11200;51.488;6.668;2022-11-15T16:51:10;13.20;99.90
22071;DHT22;11200;51.488;6.668;2022-11-15T16:53:36;13.20;99.90
22071;DHT22;11200;51.488;6.668;2022-11-15T16:56:02;13.10;99.90
22071;DHT22;11200;51.488;6.668;2022-11-15T16:58:27;13.70;99.90
22071;DHT22;11200;51.488;6.668;2022-11-15T17:00:54;13.80;99.90
22071;DHT22;11200;51.488;6.668;2022-11-15T17:03:22;13.20;99.90
22071;DHT22;11200;51.488;6.668;2022-11-15T17:05:48;13.30;99.90
22071;DHT22;11200;51.488;6.668;2022-11-15T17:08:24;13.10;99.90
22071;DHT22;11200;51.488;6.668;2022-11-15T17:11:06;13.70;99.90
22071;DHT22;11200;51.488;6.668;2022-11-15T17:17:08;13.80;99.90
22071;DHT22;11200;51.488;6.668;2022-11-15T17:19:42;13.60;99.90
22071;DHT22;11200;51.488;6.668;2022-11-15T17:22:26;13.30;99.90
22071;DHT22;11200;51.488;6.668;2022-11-15T17:28:21;13.70;99.90
22071;DHT22;11200;51.488;6.668;2022-11-15T17:30:47;13.10;99.90
22071;DHT22;11200;51.488;6.668;2022-11-15T17:36:37;12.80;99.90
22071;DHT22;11200;51.488;6.668;2022-11-15T17:42:12;13.90;99.90
22071;DHT22;11200;51.488;6.668;2022-11-15T17:44:37;13.10;99.90
22071;DHT22;11200;51.488;6.668;2022-11-15T17:47:03;13.20;99.90
22071;DHT22;11200;51.488;6.668;2022-11-15T17:49:29;13.10;99.90
22071;DHT22;11200;51.488;6.668;2022-11-15T17:51:54;13.00;99.90
22071;DHT22;11200;51.488;6.668;2022-11-15T17:54:20;13.10;99.90
22071;DHT22;11200;51.488;6.668;2022-11-15T17:56:45;13.40;99.90
22071;DHT22;11200;51.488;6.668;2022-11-15T17:59:11;13.00;99.90
22071;DHT22;11200;51.488;6.668;2022-11-15T18:01:40;13.20;99.90
22071;DHT22;11200;51.488;6.668;2022-11-15T18:04:07;13.10;99.90
22071;DHT22;11200;51.488;6.668;2022-11-15T18:06:34;13.50;99.90
22071;DHT22;11200;51.488;6.668;2022-11-15T18:09:01;13.10;99.90
22071;DHT22;11200;51.488;6.668;2022-11-15T18:11:33;13.10;99.90